Time;durP1;ratioP1;P1;durP2;ratioP2;P2;SDS_P1;SDS_P2;PMS_P1;PMS_P2;Temp;Humidity;BMP_temperature;BMP_pressure;BME280_temperature;BME280_humidity;BME280_pressure;Samples;Min_cycle;Max_cycle;Signal;HPM_P1;HPM_P2
2024/02/07 00:01:08;;;;;;;0.55;0.47;;;7.20;1.00;;;;;;5007063;28;20052;-76
2024/02/07 00:03:35;;;;;;;0.93;0.57;;;7.20;1.00;;;;;;5007142;28;20459;-76
2024/02/07 00:06:02;;;;;;;1.20;0.80;;;7.10;1.00;;;;;;5006966;28;20052;-76
2024/02/07 00:08:29;;;;;;;0.77;0.70;;;7.00;99.90;;;;;;5005587;28;20064;-76
2024/02/07 00:10:57;;;;;;;0.40;0.40;;;7.00;99.90;;;;;;5006417;28;20154;-76
2024/02/07 00:13:24;;;;;;;1.08;0.52;;;6.90;1.00;;;;;;5023075;28;20205;-76
2024/02/07 00:15:51;;;;;;;0.77;0.60;;;6.90;1.00;;;;;;5023776;28;20054;-76
2024/02/07 00:18:18;;;;;;;0.85;0.52;;;6.90;1.00;;;;;;4985195;28;20062;-76
2024/02/07 00:20:45;;;;;;;0.90;0.57;;;6.90;99.90;;;;;;4996183;28;20124;-76
2024/02/07 00:23:12;;;;;;;1.23;0.52;;;6.80;99.90;;;;;;5005012;28;20053;-76
2024/02/07 00:25:39;;;;;;;1.05;0.50;;;6.70;99.90;;;;;;4975729;28;20042;-75
2024/02/07 00:28:06;;;;;;;0.30;0.30;;;6.70;1.00;;;;;;5003375;28;20538;-76
2024/02/07 00:30:33;;;;;;;1.08;0.60;;;6.60;99.90;;;;;;4999967;28;20056;-76
2024/02/07 00:33:06;;;;;;;1.80;0.80;;;6.60;99.90;;;;;;5023047;28;20061;-77
2024/02/07 00:35:33;;;;;;;0.80;0.50;;;6.50;99.90;;;;;;5006939;28;20060;-76
2024/02/07 00:38:00;;;;;;;0.85;0.68;;;6.60;1.00;;;;;;5022171;28;20597;-76
2024/02/07 00:40:27;;;;;;;0.50;0.50;;;6.60;1.00;;;;;;5022331;28;20052;-76
2024/02/07 00:42:54;;;;;;;0.82;0.50;;;6.60;1.00;;;;;;5006086;28;20053;-76
2024/02/07 00:45:21;;;;;;;0.70;0.60;;;6.60;1.00;;;;;;5006461;28;20084;-76
2024/02/07 00:47:48;;;;;;;1.88;0.70;;;6.60;1.00;;;;;;5006205;28;20057;-77
2024/02/07 00:50:15;;;;;;;0.40;0.40;;;6.60;1.00;;;;;;5006330;28;20060;-76
2024/02/07 00:52:43;;;;;;;0.95;0.50;;;6.60;1.00;;;;;;5022150;28;20213;-76
2024/02/07 00:55:11;;;;;;;0.77;0.50;;;6.70;1.00;;;;;;5023092;28;20057;-76
2024/02/07 00:57:38;;;;;;;0.52;0.40;;;6.70;1.00;;;;;;5022924;28;20184;-76
2024/02/07 01:00:13;;;;;;;0.55;0.45;;;6.70;1.00;;;;;;5006502;28;20133;-76
2024/02/07 01:02:41;;;;;;;0.57;0.52;;;6.70;1.00;;;;;;5021301;28;20377;-77
2024/02/07 01:05:08;;;;;;;0.32;0.30;;;6.70;1.00;;;;;;5003210;28;20049;-75
2024/02/07 01:07:36;;;;;;;0.95;0.57;;;6.60;99.90;;;;;;5008582;28;20684;-77
2024/02/07 01:10:05;;;;;;;1.10;0.50;;;6.50;99.90;;;;;;4993062;28;20136;-77
2024/02/07 01:12:32;;;;;;;0.50;0.50;;;6.40;1.00;;;;;;5026274;28;20049;-77
2024/02/07 01:14:59;;;;;;;0.70;0.50;;;6.40;1.00;;;;;;5026325;28;20072;-76
2024/02/07 01:17:26;;;;;;;1.40;0.70;;;6.40;1.00;;;;;;4994254;28;20136;-77
2024/02/07 01:19:54;;;;;;;0.93;0.90;;;6.40;1.00;;;;;;5010007;28;20136;-77
2024/02/07 01:22:21;;;;;;;1.05;0.35;;;6.40;1.00;;;;;;5009613;28;20053;-77
2024/02/07 01:24:48;;;;;;;1.95;0.80;;;6.30;99.90;;;;;;5008307;28;20049;-77
2024/02/07 01:27:15;;;;;;;2.03;0.80;;;6.20;99.90;;;;;;5027167;28;20491;-77
2024/02/07 01:29:41;;;;;;;1.08;0.70;;;6.20;99.90;;;;;;5025754;28;20065;-76
2024/02/07 01:32:08;;;;;;;1.20;1.10;;;6.20;1.00;;;;;;5010009;28;20042;-76
2024/02/07 01:34:35;;;;;;;0.70;0.57;;;6.20;1.00;;;;;;5026960;28;20407;-77
2024/02/07 01:37:02;;;;;;;0.50;0.50;;;6.20;1.00;;;;;;5009195;28;20050;-77
2024/02/07 01:39:32;;;;;;;0.45;0.35;;;6.20;1.00;;;;;;5008351;28;20156;-77
2024/02/07 01:42:02;;;;;;;0.73;0.60;;;6.20;1.00;;;;;;5010289;28;20076;-77
2024/02/07 01:44:29;;;;;;;1.48;0.80;;;6.30;1.00;;;;;;5009467;28;20092;-77
2024/02/07 01:47:31;;;;;;;1.58;0.50;;;6.20;1.00;;;;;;5009532;28;20046;-76
2024/02/07 01:49:51;;;;;;;0.55;0.40;;;6.20;1.00;;;;;;5021948;28;20076;-77
2024/02/07 01:52:21;;;;;;;0.80;0.65;;;6.20;1.00;;;;;;4995741;28;20056;-77
2024/02/07 01:54:48;;;;;;;0.80;0.60;;;6.20;1.00;;;;;;4996351;28;20046;-77
2024/02/07 01:57:15;;;;;;;0.60;0.60;;;6.20;1.00;;;;;;5005214;28;20050;-77
2024/02/07 01:59:42;;;;;;;0.68;0.68;;;6.20;1.00;;;;;;5002319;28;20073;-77
2024/02/07 02:02:09;;;;;;;0.70;0.50;;;6.10;1.00;;;;;;5009374;28;20076;-77
2024/02/07 02:04:37;;;;;;;0.93;0.50;;;6.10;2.60;;;;;;4992448;28;20100;-77
2024/02/07 02:07:04;;;;;;;1.33;0.68;;;6.10;1.00;;;;;;5009161;28;20144;-76
2024/02/07 02:09:31;;;;;;;0.50;0.50;;;6.10;1.00;;;;;;5008232;28;20045;-77
2024/02/07 02:11:58;;;;;;;1.02;0.50;;;6.10;8.20;;;;;;5009145;28;20045;-77
2024/02/07 02:14:25;;;;;;;0.63;0.50;;;6.10;14.10;;;;;;5022013;28;20133;-77
2024/02/07 02:16:52;;;;;;;1.00;0.90;;;6.10;1.00;;;;;;4988856;28;20068;-77
2024/02/07 02:19:20;;;;;;;0.93;0.68;;;6.10;1.00;;;;;;5005936;28;20046;-77
2024/02/07 02:22:06;;;;;;;0.80;0.80;;;6.10;1.00;;;;;;5024645;28;20049;-77
2024/02/07 02:25:01;;;;;;;0.82;0.50;;;6.20;3.90;;;;;;5024668;28;20053;-77
2024/02/07 02:27:54;;;;;;;0.38;0.30;;;6.20;14.70;;;;;;5024914;28;20045;-75
2024/02/07 02:30:31;;;;;;;0.73;0.63;;;6.20;41.80;;;;;;5008189;28;20061;-75
2024/02/07 02:32:58;;;;;;;1.38;0.52;;;6.20;19.30;;;;;;5003081;28;20050;-75
2024/02/07 02:35:25;;;;;;;0.40;0.40;;;6.30;97.50;;;;;;4972388;28;20061;-77
2024/02/07 02:37:52;;;;;;;0.40;0.40;;;6.30;48.40;;;;;;4988624;28;20053;-77
2024/02/07 02:40:19;;;;;;;0.40;0.35;;;6.30;28.80;;;;;;4985784;28;20046;-77
2024/02/07 02:42:46;;;;;;;0.40;0.40;;;6.30;11.20;;;;;;5020944;28;20053;-75
2024/02/07 02:45:13;;;;;;;0.50;0.50;;;6.30;92.10;;;;;;5027024;28;20046;-76
2024/02/07 02:47:40;;;;;;;0.47;0.47;;;6.40;23.60;;;;;;5038779;28;20084;-75
2024/02/07 02:50:07;;;;;;;0.40;0.40;;;6.30;28.20;;;;;;5026205;28;20092;-76
2024/02/07 02:52:35;;;;;;;0.40;0.40;;;6.30;55.70;;;;;;5032650;28;20048;-76
2024/02/07 02:55:02;;;;;;;0.40;0.40;;;6.40;48.20;;;;;;5028619;28;20071;-74
2024/02/07 02:57:31;;;;;;;0.40;0.40;;;6.40;50.90;;;;;;5047850;28;20055;-75
2024/02/07 02:59:58;;;;;;;0.45;0.45;;;6.40;45.80;;;;;;5030340;28;20049;-75
2024/02/07 03:02:26;;;;;;;0.50;0.30;;;6.40;1.00;;;;;;5030262;28;20140;-75
2024/02/07 03:04:53;;;;;;;0.40;0.40;;;6.40;1.00;;;;;;5014057;28;20057;-75
2024/02/07 03:10:25;;;;;;;1.27;0.60;;;6.30;1.00;;;;;;4916189;29;20418;-75
2024/02/07 03:12:52;;;;;;;0.40;0.40;;;6.30;1.00;;;;;;5011797;28;20215;-74
2024/02/07 03:15:20;;;;;;;0.50;0.40;;;6.20;99.90;;;;;;5013506;28;20053;-75
2024/02/07 03:17:48;;;;;;;0.52;0.40;;;6.10;99.90;;;;;;5013395;28;20649;-75
2024/02/07 03:20:15;;;;;;;1.90;0.85;;;6.10;99.90;;;;;;4997620;28;20049;-75
2024/02/07 03:22:42;;;;;;;0.65;0.60;;;6.00;99.90;;;;;;5046980;28;20087;-77
2024/02/07 03:25:16;;;;;;;0.70;0.60;;;5.90;99.90;;;;;;5010775;28;20103;-78
2024/02/07 03:27:52;;;;;;;2.20;0.57;;;5.90;99.90;;;;;;4996663;28;20049;-75
2024/02/07 03:30:23;;;;;;;1.08;0.47;;;6.00;99.90;;;;;;5026352;28;20057;-77
2024/02/07 03:32:54;;;;;;;1.33;0.50;;;5.90;99.90;;;;;;5016161;28;20707;-76
2024/02/07 03:35:22;;;;;;;0.68;0.55;;;5.90;99.90;;;;;;5014101;28;20049;-76
2024/02/07 03:37:49;;;;;;;0.50;0.40;;;5.90;99.90;;;;;;5011804;28;20045;-74
2024/02/07 03:40:17;;;;;;;0.40;0.40;;;5.90;99.90;;;;;;5026496;28;20206;-77
2024/02/07 03:42:44;;;;;;;0.43;0.40;;;5.90;99.90;;;;;;5027795;28;20055;-75
2024/02/07 03:45:16;;;;;;;0.80;0.40;;;5.90;99.90;;;;;;5029126;28;20053;-75
2024/02/07 03:47:44;;;;;;;0.93;0.45;;;5.90;99.90;;;;;;5029557;28;20056;-76
2024/02/07 03:50:11;;;;;;;0.60;0.45;;;5.90;1.00;;;;;;5029204;28;20048;-75
2024/02/07 03:52:39;;;;;;;0.77;0.45;;;5.90;1.00;;;;;;5028620;28;20053;-76
2024/02/07 03:55:06;;;;;;;0.88;0.50;;;6.00;1.00;;;;;;5028129;28;20057;-75
2024/02/07 03:57:36;;;;;;;1.35;0.63;;;5.90;1.00;;;;;;5012956;28;20124;-76
2024/02/07 04:00:13;;;;;;;1.20;0.60;;;5.90;99.90;;;;;;5012625;28;20152;-75
2024/02/07 04:02:41;;;;;;;0.52;0.50;;;5.80;99.90;;;;;;5030544;28;20144;-75
2024/02/07 04:05:08;;;;;;;0.40;0.40;;;5.80;1.00;;;;;;5012998;28;20514;-75
2024/02/07 04:07:35;;;;;;;0.95;0.52;;;5.90;1.00;;;;;;5012389;28;20067;-75
2024/02/07 04:10:09;;;;;;;1.48;0.50;;;5.90;1.00;;;;;;5011137;28;20073;-75
2024/02/07 05:16:12;;;;;;;0.35;0.35;;;5.70;1.00;;;;;;5023427;28;20061;-76
2024/02/07 05:18:39;;;;;;;0.50;0.40;;;5.70;99.90;;;;;;5042543;28;20053;-76
2024/02/07 05:21:12;;;;;;;0.40;0.40;;;5.60;99.90;;;;;;5011297;28;20049;-76
2024/02/07 05:23:40;;;;;;;0.82;0.50;;;5.60;99.90;;;;;;5010867;28;20060;-75
2024/02/07 05:26:10;;;;;;;1.40;0.63;;;5.50;99.90;;;;;;5027307;28;20610;-75
2024/02/07 05:28:40;;;;;;;0.73;0.47;;;5.50;99.90;;;;;;5028323;28;20056;-76
2024/02/07 05:31:07;;;;;;;0.63;0.55;;;5.50;99.90;;;;;;5011786;28;20041;-76
2024/02/07 05:33:34;;;;;;;0.57;0.40;;;5.50;1.00;;;;;;5027682;28;20081;-76
2024/02/07 05:36:01;;;;;;;2.63;0.50;;;5.50;99.90;;;;;;5011677;28;20061;-76
2024/02/07 05:38:28;;;;;;;0.80;0.40;;;5.50;1.00;;;;;;5026926;28;20063;-76
2024/02/07 05:40:55;;;;;;;2.40;0.43;;;5.50;99.90;;;;;;5027387;28;20049;-76
2024/02/07 05:43:22;;;;;;;0.45;0.45;;;5.50;99.90;;;;;;5011064;28;20052;-76
2024/02/07 05:45:49;;;;;;;0.47;0.40;;;5.50;99.90;;;;;;5011702;28;20053;-76
2024/02/07 05:48:16;;;;;;;1.00;0.55;;;5.50;99.90;;;;;;5009664;28;20049;-76
2024/02/07 05:50:44;;;;;;;0.30;0.30;;;5.60;1.00;;;;;;5009594;28;20414;-76
2024/02/07 05:53:12;;;;;;;0.43;0.43;;;5.60;99.90;;;;;;5010574;28;20651;-76
2024/02/07 05:55:43;;;;;;;1.13;0.57;;;5.60;99.90;;;;;;4996586;28;20052;-76
2024/02/07 05:58:10;;;;;;;0.77;0.50;;;5.60;99.90;;;;;;5013423;28;20056;-76
2024/02/07 06:00:38;;;;;;;0.40;0.40;;;5.50;99.90;;;;;;5012979;28;20085;-76
2024/02/07 06:03:05;;;;;;;0.60;0.60;;;5.50;99.90;;;;;;5010582;28;20715;-76
2024/02/07 06:05:33;;;;;;;0.88;0.43;;;5.60;99.90;;;;;;5009753;28;20676;-75
2024/02/07 06:08:00;;;;;;;0.90;0.50;;;5.60;99.90;;;;;;5024320;28;20087;-75
2024/02/07 06:10:28;;;;;;;1.08;0.50;;;5.60;99.90;;;;;;5005331;28;20045;-75
2024/02/07 06:12:55;;;;;;;0.60;0.60;;;5.60;99.90;;;;;;5028346;28;20560;-76
2024/02/07 06:15:22;;;;;;;0.95;0.40;;;5.50;99.90;;;;;;5044727;28;20175;-77
2024/02/07 06:17:49;;;;;;;0.95;0.88;;;5.60;99.90;;;;;;5024621;28;20060;-77
2024/02/07 06:20:16;;;;;;;0.40;0.40;;;5.50;99.90;;;;;;5007598;28;20045;-76
2024/02/07 06:22:47;;;;;;;1.67;0.60;;;5.50;40.60;;;;;;5026072;28;20102;-77
2024/02/07 06:25:15;;;;;;;1.20;1.08;;;5.50;99.90;;;;;;5024858;28;20041;-75
2024/02/07 06:27:43;;;;;;;2.40;1.55;;;5.40;38.40;;;;;;5013802;28;20112;-76
2024/02/07 06:30:10;;;;;;;1.58;0.90;;;5.40;60.50;;;;;;5043219;28;20057;-75
2024/02/07 06:32:37;;;;;;;1.90;1.02;;;5.40;99.90;;;;;;5025892;28;20037;-75
2024/02/07 06:35:04;;;;;;;2.90;1.48;;;5.40;99.90;;;;;;5023149;28;20419;-75
2024/02/07 06:37:31;;;;;;;1.25;0.88;;;5.40;99.90;;;;;;5045655;28;20080;-75
2024/02/07 06:40:00;;;;;;;1.48;0.80;;;5.40;99.90;;;;;;5026967;28;20048;-78
2024/02/07 06:42:26;;;;;;;1.60;1.00;;;5.40;99.90;;;;;;5010938;28;20053;-76
2024/02/07 06:44:53;;;;;;;1.02;0.60;;;5.40;99.90;;;;;;5045287;28;20518;-76
2024/02/07 06:47:21;;;;;;;0.90;0.63;;;5.50;99.90;;;;;;5028077;28;20085;-76
2024/02/07 06:49:49;;;;;;;1.02;0.60;;;5.50;99.90;;;;;;5027094;28;20060;-75
2024/02/07 06:52:16;;;;;;;0.98;0.47;;;5.50;99.90;;;;;;5029443;28;20048;-75
2024/02/07 06:54:43;;;;;;;0.70;0.50;;;5.50;99.90;;;;;;5025953;28;20052;-75
2024/02/07 06:57:10;;;;;;;0.50;0.50;;;5.50;99.90;;;;;;5037718;28;20044;-75
2024/02/07 06:59:37;;;;;;;0.40;0.40;;;5.50;99.90;;;;;;5021152;28;20492;-75
2024/02/07 07:02:04;;;;;;;0.70;0.60;;;5.50;99.90;;;;;;5008279;28;20106;-75
2024/02/07 07:04:31;;;;;;;0.60;0.60;;;5.50;99.90;;;;;;5030990;28;20144;-76
2024/02/07 07:06:58;;;;;;;0.77;0.55;;;5.50;99.90;;;;;;5038300;28;20296;-76
2024/02/07 07:09:24;;;;;;;1.95;1.35;;;5.50;99.90;;;;;;5023722;28;20138;-76
2024/02/07 07:11:51;;;;;;;1.13;0.73;;;5.50;99.90;;;;;;5008476;28;20094;-76
2024/02/07 07:14:18;;;;;;;1.63;0.93;;;5.50;47.30;;;;;;5037789;28;20212;-75
2024/02/07 07:16:45;;;;;;;1.40;0.70;;;5.50;99.90;;;;;;5022431;28;20056;-75
2024/02/07 07:19:12;;;;;;;1.35;0.80;;;5.50;99.90;;;;;;5021852;28;20053;-75
2024/02/07 07:21:40;;;;;;;0.98;0.60;;;5.50;99.90;;;;;;5020257;28;20281;-76
2024/02/07 07:24:07;;;;;;;0.82;0.60;;;5.50;99.90;;;;;;5019463;28;20049;-77
2024/02/07 07:26:34;;;;;;;0.73;0.50;;;5.50;99.90;;;;;;5005101;28;20102;-77
2024/02/07 07:29:01;;;;;;;0.57;0.50;;;5.50;99.90;;;;;;5020989;28;20106;-77
2024/02/07 07:31:34;;;;;;;0.60;0.60;;;5.60;99.90;;;;;;5002299;28;20103;-77
2024/02/07 07:34:01;;;;;;;0.32;0.30;;;5.60;99.90;;;;;;5037644;28;20048;-76
2024/02/07 07:36:28;;;;;;;1.63;0.70;;;5.60;99.90;;;;;;5020823;28;20060;-76
2024/02/07 07:38:55;;;;;;;1.50;0.77;;;5.60;1.00;;;;;;5019506;28;20045;-75
2024/02/07 07:41:23;;;;;;;1.08;0.77;;;5.50;1.00;;;;;;5021344;28;20101;-76
2024/02/07 07:43:51;;;;;;;1.35;0.70;;;5.50;99.90;;;;;;5020720;28;20048;-75
2024/02/07 07:46:18;;;;;;;1.67;0.70;;;5.60;99.90;;;;;;5004497;28;20045;-75
2024/02/07 07:48:44;;;;;;;0.90;0.63;;;5.60;1.00;;;;;;5003740;28;21435;-77
2024/02/07 07:51:15;;;;;;;1.67;0.63;;;5.50;1.00;;;;;;5004002;28;20049;-75
2024/02/07 07:53:42;;;;;;;0.75;0.40;;;5.50;1.00;;;;;;4987702;28;21030;-76
2024/02/07 07:56:10;;;;;;;0.60;0.52;;;5.60;97.90;;;;;;5037470;28;20577;-75
2024/02/07 07:58:38;;;;;;;0.77;0.70;;;5.60;44.40;;;;;;5018709;28;20053;-75
2024/02/07 08:01:21;;;;;;;1.25;0.60;;;5.70;69.80;;;;;;5015829;28;20052;-75
2024/02/07 08:03:51;;;;;;;0.60;0.60;;;5.60;99.90;;;;;;5017418;28;20063;-76
2024/02/07 08:06:18;;;;;;;1.17;0.60;;;5.60;99.90;;;;;;4997979;28;20057;-77
2024/02/07 08:08:45;;;;;;;0.88;0.60;;;5.60;99.90;;;;;;5002090;28;20076;-76
2024/02/07 08:11:11;;;;;;;0.80;0.73;;;5.60;99.90;;;;;;5019678;28;20129;-76
2024/02/07 08:13:38;;;;;;;3.03;1.42;;;5.70;99.90;;;;;;5019259;28;20045;-75
2024/02/07 08:16:06;;;;;;;1.30;1.00;;;5.70;99.90;;;;;;5036950;28;20052;-76
2024/02/07 08:18:33;;;;;;;1.17;0.90;;;5.80;99.90;;;;;;5040688;28;20080;-76
2024/02/07 08:21:00;;;;;;;2.05;1.15;;;5.70;99.90;;;;;;5001086;28;20180;-77
2024/02/07 08:23:28;;;;;;;2.38;0.90;;;5.70;99.90;;;;;;5014341;28;20049;-76
2024/02/07 08:25:55;;;;;;;1.13;0.80;;;5.70;81.10;;;;;;5020539;28;20053;-76
2024/02/07 08:28:22;;;;;;;1.08;0.65;;;5.70;1.00;;;;;;4995598;28;20052;-76
2024/02/07 08:30:49;;;;;;;1.15;0.70;;;5.70;99.90;;;;;;5005641;28;20122;-77
2024/02/07 08:33:16;;;;;;;1.33;0.80;;;5.80;43.50;;;;;;5002927;28;20132;-78
2024/02/07 08:35:45;;;;;;;0.88;0.70;;;5.80;2.90;;;;;;5038354;28;20049;-77
2024/02/07 08:38:12;;;;;;;1.95;0.60;;;5.80;99.90;;;;;;5017037;28;20512;-76
2024/02/07 08:40:39;;;;;;;0.63;0.40;;;5.90;99.90;;;;;;5037585;28;20161;-76
2024/02/07 08:43:07;;;;;;;1.90;1.00;;;5.80;1.00;;;;;;5019435;28;20064;-76
2024/02/07 08:45:35;;;;;;;1.23;0.50;;;5.90;1.00;;;;;;5038268;28;20052;-76
2024/02/07 08:48:03;;;;;;;1.40;0.40;;;5.90;48.50;;;;;;5037087;28;20066;-76
2024/02/07 08:50:31;;;;;;;0.50;0.50;;;6.00;99.90;;;;;;5038068;28;20053;-76
2024/02/07 08:52:57;;;;;;;0.65;0.55;;;6.10;99.90;;;;;;5035846;28;20781;-76
2024/02/07 08:55:24;;;;;;;1.33;0.40;;;6.10;1.00;;;;;;4978055;28;20136;-76
2024/02/07 08:57:51;;;;;;;1.25;0.50;;;6.20;99.90;;;;;;5003413;28;20041;-76
2024/02/07 09:00:18;;;;;;;0.82;0.70;;;6.20;99.90;;;;;;5018555;28;20049;-76
2024/02/07 09:02:49;;;;;;;1.25;0.50;;;6.20;99.90;;;;;;5018035;28;20396;-76
2024/02/07 09:05:17;;;;;;;0.95;0.50;;;6.20;99.90;;;;;;5004999;28;20128;-76
2024/02/07 09:07:44;;;;;;;0.70;0.55;;;6.20;99.90;;;;;;5019428;28;20049;-76
2024/02/07 09:10:12;;;;;;;2.05;0.60;;;6.20;29.20;;;;;;5019556;28;20060;-76
2024/02/07 09:12:39;;;;;;;3.13;1.00;;;6.20;99.90;;;;;;5003146;28;20063;-77
2024/02/07 09:15:08;;;;;;;0.77;0.52;;;6.20;99.90;;;;;;5037268;28;20057;-76
2024/02/07 09:17:35;;;;;;;1.52;0.95;;;6.30;1.00;;;;;;5037576;28;20052;-76
2024/02/07 09:20:02;;;;;;;3.30;1.45;;;6.30;99.90;;;;;;5035913;28;20132;-76
2024/02/07 09:22:29;;;;;;;2.55;1.35;;;6.40;99.90;;;;;;5019065;28;20057;-76
2024/02/07 09:24:58;;;;;;;2.00;1.40;;;6.40;1.00;;;;;;5018767;28;20063;-76
2024/02/07 09:27:25;;;;;;;2.67;1.45;;;6.40;99.90;;;;;;5022077;28;20053;-75
2024/02/07 09:29:53;;;;;;;2.13;1.63;;;6.50;32.50;;;;;;5034405;28;20671;-76
2024/02/07 09:32:37;;;;;;;4.13;2.22;;;6.60;99.90;;;;;;5023026;28;20049;-74
2024/02/07 09:35:04;;;;;;;5.03;2.30;;;6.60;99.90;;;;;;5007951;28;20148;-76
2024/02/07 09:37:31;;;;;;;4.28;2.40;;;6.60;1.00;;;;;;5006126;28;20056;-76
2024/02/07 09:39:58;;;;;;;2.72;1.73;;;6.60;4.60;;;;;;5009325;28;20045;-76
2024/02/07 09:42:25;;;;;;;2.80;1.58;;;6.70;90.30;;;;;;5022568;28;20049;-76
2024/02/07 09:44:52;;;;;;;3.42;1.98;;;6.70;1.00;;;;;;5015179;28;20289;-76
2024/02/07 09:47:19;;;;;;;3.60;1.63;;;6.70;99.90;;;;;;5016161;28;20660;-76
2024/02/07 09:49:47;;;;;;;2.03;1.33;;;6.70;99.90;;;;;;5001823;28;20053;-76
2024/02/07 09:52:17;;;;;;;2.80;1.40;;;6.70;60.70;;;;;;5020355;28;20050;-74
2024/02/07 09:54:46;;;;;;;1.98;1.20;;;6.80;1.10;;;;;;5001282;28;20049;-74
2024/02/07 09:57:14;;;;;;;2.92;1.38;;;6.80;99.90;;;;;;5021806;28;20603;-74
2024/02/07 09:59:41;;;;;;;3.25;1.35;;;6.80;99.90;;;;;;5022404;28;20096;-73
2024/02/07 10:02:11;;;;;;;1.17;0.82;;;6.90;99.90;;;;;;5026867;28;20057;-74
2024/02/07 10:04:38;;;;;;;2.05;1.05;;;7.00;1.00;;;;;;5025038;28;20602;-74
2024/02/07 10:07:12;;;;;;;1.13;1.00;;;7.10;99.90;;;;;;5024958;28;20057;-74
2024/02/07 10:09:40;;;;;;;2.30;1.00;;;7.20;80.00;;;;;;5006639;28;20053;-74
2024/02/07 10:12:07;;;;;;;2.50;1.23;;;7.30;16.50;;;;;;5021384;28;20524;-74
2024/02/07 10:14:34;;;;;;;1.48;1.13;;;7.40;1.00;;;;;;5020629;28;20471;-74
2024/02/07 10:17:04;;;;;;;2.10;1.23;;;7.40;1.00;;;;;;5019710;28;20049;-74
2024/02/07 10:19:32;;;;;;;2.50;1.40;;;7.30;99.90;;;;;;5022850;28;20162;-74
2024/02/07 10:21:59;;;;;;;4.03;1.83;;;7.30;99.90;;;;;;5021399;28;20073;-74
2024/02/07 10:24:29;;;;;;;2.92;1.45;;;7.40;99.90;;;;;;5003315;28;20484;-73
2024/02/07 10:26:56;;;;;;;3.10;1.40;;;7.40;99.90;;;;;;5019281;28;20508;-74
2024/02/07 10:29:25;;;;;;;2.80;1.20;;;7.40;99.90;;;;;;5039022;28;20052;-74
2024/02/07 10:31:53;;;;;;;1.83;1.27;;;7.30;99.90;;;;;;5003913;28;20053;-74
2024/02/07 10:34:20;;;;;;;3.13;1.52;;;7.30;99.90;;;;;;5019034;28;20057;-74
2024/02/07 10:36:56;;;;;;;3.13;1.42;;;7.30;99.90;;;;;;4999417;28;20817;-74
2024/02/07 10:39:23;;;;;;;2.67;1.45;;;7.30;99.90;;;;;;4991530;28;20124;-74
2024/02/07 10:41:50;;;;;;;2.00;1.23;;;7.40;99.90;;;;;;5018812;28;20049;-74
2024/02/07 10:44:17;;;;;;;2.47;1.38;;;7.50;99.90;;;;;;5018741;28;20081;-74
2024/02/07 10:46:44;;;;;;;2.30;1.00;;;7.70;99.90;;;;;;5017027;28;20041;-73
2024/02/07 10:49:11;;;;;;;1.38;0.82;;;7.80;99.90;;;;;;5002997;28;20053;-73
2024/02/07 10:51:39;;;;;;;1.40;0.65;;;8.00;99.90;;;;;;5017907;28;20404;-74
2024/02/07 10:54:09;;;;;;;1.27;0.95;;;8.10;99.90;;;;;;5016833;28;20052;-74
2024/02/07 10:56:37;;;;;;;0.70;0.70;;;8.10;99.90;;;;;;5019002;28;20053;-74
2024/02/07 10:59:04;;;;;;;1.00;0.77;;;8.10;99.90;;;;;;5018992;28;20063;-74
2024/02/07 11:01:32;;;;;;;2.28;0.95;;;8.10;99.90;;;;;;5018912;28;20065;-74
2024/02/07 11:03:59;;;;;;;0.63;0.60;;;8.10;99.90;;;;;;5002298;28;20052;-75
2024/02/07 11:06:27;;;;;;;1.50;0.60;;;8.10;99.90;;;;;;5019652;28;20076;-74
2024/02/07 11:08:58;;;;;;;0.38;0.38;;;8.00;99.90;;;;;;5016949;28;20495;-74
2024/02/07 11:11:25;;;;;;;1.33;0.70;;;8.00;99.90;;;;;;5001729;28;20049;-74
2024/02/07 11:13:53;;;;;;;2.63;0.73;;;7.90;99.90;;;;;;5017740;28;20071;-74
2024/02/07 11:16:20;;;;;;;1.65;0.77;;;7.80;99.90;;;;;;5019754;28;20049;-74
2024/02/07 11:18:47;;;;;;;1.08;0.80;;;7.80;99.90;;;;;;5007202;28;20128;-74
2024/02/07 11:21:17;;;;;;;0.98;0.60;;;8.00;99.90;;;;;;5006199;28;20093;-74
2024/02/07 11:23:46;;;;;;;1.17;0.60;;;8.20;99.90;;;;;;5004652;28;20064;-75
2024/02/07 11:26:13;;;;;;;0.50;0.50;;;8.30;99.90;;;;;;5004920;28;20100;-75
2024/02/07 11:28:40;;;;;;;1.73;0.75;;;8.40;99.90;;;;;;5004326;28;20077;-75
2024/02/07 11:31:07;;;;;;;1.27;0.60;;;8.40;99.90;;;;;;5023812;28;20531;-74
2024/02/07 11:33:36;;;;;;;1.17;0.60;;;8.30;99.90;;;;;;5006904;28;20045;-74
2024/02/07 11:36:21;;;;;;;1.50;0.70;;;8.40;99.90;;;;;;5040528;28;20053;-74
2024/02/07 11:38:48;;;;;;;1.35;0.50;;;8.50;99.90;;;;;;5024069;28;20049;-74
2024/02/07 11:41:19;;;;;;;1.08;0.60;;;8.50;99.90;;;;;;5023083;28;20415;-74
2024/02/07 11:43:49;;;;;;;0.40;0.40;;;8.50;99.90;;;;;;5022565;28;20133;-74
2024/02/07 11:46:16;;;;;;;1.67;0.80;;;8.40;99.90;;;;;;4998101;28;20077;-74
2024/02/07 11:48:51;;;;;;;2.50;0.75;;;8.40;99.90;;;;;;5026359;28;20040;-74
2024/02/07 11:51:20;;;;;;;2.20;1.08;;;8.30;99.90;;;;;;5003515;28;20053;-74
2024/02/07 11:53:47;;;;;;;1.05;0.60;;;8.40;99.90;;;;;;5024130;28;20129;-74
2024/02/07 11:56:18;;;;;;;1.33;0.98;;;8.40;99.90;;;;;;5013044;28;20052;-75
2024/02/07 11:58:46;;;;;;;1.00;0.43;;;8.50;99.90;;;;;;5009968;28;20102;-74
2024/02/07 12:01:14;;;;;;;1.40;0.85;;;8.50;99.90;;;;;;5031948;28;20526;-75
2024/02/07 12:03:41;;;;;;;1.73;1.08;;;8.50;99.90;;;;;;5007493;28;20053;-75
2024/02/07 12:06:08;;;;;;;1.73;1.20;;;8.50;99.90;;;;;;5043225;28;20325;-75
2024/02/07 12:08:38;;;;;;;0.77;0.60;;;8.40;99.90;;;;;;5024386;28;20057;-74
2024/02/07 12:11:06;;;;;;;0.90;0.65;;;8.50;99.90;;;;;;5022323;28;20049;-75
2024/02/07 12:13:36;;;;;;;1.58;0.85;;;8.40;99.90;;;;;;5026341;28;20209;-75
2024/02/07 12:16:04;;;;;;;2.05;0.75;;;8.40;99.90;;;;;;5004240;28;20479;-75
2024/02/07 12:18:32;;;;;;;3.15;0.80;;;8.40;99.90;;;;;;5020822;28;20068;-76
2024/02/07 12:21:03;;;;;;;0.70;0.52;;;8.40;99.90;;;;;;5018371;28;20085;-74
2024/02/07 12:23:32;;;;;;;0.52;0.50;;;8.40;99.90;;;;;;5019092;28;20056;-74
2024/02/07 12:25:59;;;;;;;0.50;0.50;;;8.40;99.90;;;;;;5019917;28;20081;-75
2024/02/07 12:28:26;;;;;;;0.65;0.60;;;8.40;99.90;;;;;;5020158;28;20433;-74
2024/02/07 12:30:55;;;;;;;0.88;0.55;;;8.40;99.90;;;;;;5020680;28;20416;-75
2024/02/07 12:33:25;;;;;;;1.88;0.70;;;8.40;99.90;;;;;;5037800;28;20110;-74
2024/02/07 12:36:02;;;;;;;1.08;1.00;;;8.40;99.90;;;;;;5037495;28;20060;-75
2024/02/07 12:38:29;;;;;;;0.50;0.40;;;8.50;99.90;;;;;;5002640;28;20044;-74
2024/02/07 12:40:57;;;;;;;0.82;0.50;;;8.50;99.90;;;;;;5020119;28;20549;-74
2024/02/07 12:43:25;;;;;;;1.00;0.60;;;8.50;99.90;;;;;;5037405;28;20499;-75
2024/02/07 12:45:54;;;;;;;0.93;0.80;;;8.50;99.90;;;;;;5036109;28;20611;-74
2024/02/07 12:48:31;;;;;;;2.67;0.98;;;8.40;99.90;;;;;;5019484;28;20049;-75
2024/02/07 12:50:58;;;;;;;2.20;1.13;;;8.40;99.90;;;;;;5003402;28;20037;-74
2024/02/07 12:53:26;;;;;;;3.15;1.02;;;8.30;99.90;;;;;;5002229;28;20053;-74
2024/02/07 12:55:53;;;;;;;1.98;1.13;;;8.30;99.90;;;;;;5003287;28;20148;-75
2024/02/07 12:58:20;;;;;;;2.40;0.85;;;8.30;99.90;;;;;;5037200;28;20045;-75
2024/02/07 13:00:46;;;;;;;2.47;0.90;;;8.30;99.90;;;;;;5036971;28;20041;-74
2024/02/07 13:03:14;;;;;;;2.83;1.08;;;8.30;99.90;;;;;;5022417;28;20045;-75
2024/02/07 13:05:40;;;;;;;1.92;1.00;;;8.20;99.90;;;;;;5021428;28;20489;-75
2024/02/07 13:08:11;;;;;;;3.00;1.42;;;8.20;99.90;;;;;;5039171;28;20143;-75
2024/02/07 13:10:38;;;;;;;2.42;1.60;;;8.20;99.90;;;;;;5024228;28;20444;-75
2024/02/07 13:13:05;;;;;;;2.00;1.10;;;8.20;99.90;;;;;;5020974;28;20044;-75
2024/02/07 13:15:33;;;;;;;2.78;1.23;;;8.10;99.90;;;;;;5040982;28;20108;-76
2024/02/07 13:18:02;;;;;;;2.45;0.90;;;8.10;99.90;;;;;;5041357;28;20056;-75
2024/02/07 13:20:29;;;;;;;2.17;0.75;;;8.10;99.90;;;;;;5023102;28;20056;-75
2024/02/07 13:22:57;;;;;;;1.58;1.08;;;8.10;99.90;;;;;;5004943;28;20061;-75
2024/02/07 13:25:25;;;;;;;1.75;0.77;;;8.10;99.90;;;;;;5024269;28;20503;-75
2024/02/07 13:27:52;;;;;;;1.08;0.70;;;8.10;99.90;;;;;;5007631;28;20207;-75
2024/02/07 13:30:19;;;;;;;1.85;0.63;;;8.10;99.90;;;;;;5024089;28;20522;-76
2024/02/07 13:32:46;;;;;;;2.00;0.80;;;8.10;99.90;;;;;;5006987;28;20049;-75
2024/02/07 13:35:15;;;;;;;1.23;0.70;;;8.10;99.90;;;;;;5006871;28;20092;-75
2024/02/07 13:37:42;;;;;;;0.82;0.60;;;8.00;99.90;;;;;;5007712;28;20072;-75
2024/02/07 13:40:09;;;;;;;1.45;0.60;;;8.10;99.90;;;;;;5022771;28;20652;-75
2024/02/07 13:42:37;;;;;;;1.02;0.70;;;8.00;99.90;;;;;;5041151;28;20049;-75
2024/02/07 13:45:06;;;;;;;1.58;0.80;;;8.10;99.90;;;;;;5040167;28;20056;-75
2024/02/07 13:47:33;;;;;;;0.85;0.75;;;8.10;99.90;;;;;;5017430;28;20798;-75
2024/02/07 13:50:01;;;;;;;1.10;0.57;;;8.00;99.90;;;;;;5020863;28;20127;-75
2024/02/07 13:52:28;;;;;;;2.30;0.80;;;8.00;99.90;;;;;;5020536;28;20219;-75
2024/02/07 13:54:56;;;;;;;2.67;1.30;;;7.90;99.90;;;;;;5017794;28;20041;-75
2024/02/07 13:57:23;;;;;;;1.75;1.40;;;7.80;99.90;;;;;;5020932;28;20702;-75
2024/02/07 13:59:50;;;;;;;0.80;0.50;;;7.80;99.90;;;;;;5019519;28;20445;-74
2024/02/07 14:02:17;;;;;;;1.70;0.88;;;7.80;1.00;;;;;;5017870;28;20487;-75
2024/02/07 14:04:44;;;;;;;1.08;0.75;;;7.90;1.00;;;;;;5018260;28;20079;-75
2024/02/07 14:07:11;;;;;;;1.90;1.10;;;7.80;1.00;;;;;;5015453;28;20065;-75
2024/02/07 14:09:38;;;;;;;1.80;0.80;;;7.80;1.00;;;;;;5015502;28;20053;-75
2024/02/07 14:12:05;;;;;;;1.58;0.70;;;7.90;97.10;;;;;;5020126;28;20116;-74